createdAt,value
2023-05-07T00:02:12.193Z,88.13
2023-05-07T00:04:40.035Z,88.09
2023-05-07T00:07:07.380Z,87.97
2023-05-07T00:09:34.927Z,87.73
2023-05-07T00:12:02.487Z,87.79
2023-05-07T00:14:30.038Z,86.88
2023-05-07T00:16:57.293Z,87.69
2023-05-07T00:19:24.832Z,87.76
2023-05-07T00:21:54.591Z,88.98
2023-05-07T00:24:22.064Z,90.17
2023-05-07T00:26:49.438Z,89.95
2023-05-07T00:29:17.080Z,89.96
2023-05-07T00:31:44.362Z,89.40
2023-05-07T00:34:11.969Z,88.93
2023-05-07T00:36:39.178Z,88.93
2023-05-07T00:39:06.816Z,88.61
2023-05-07T00:41:34.103Z,89.04
2023-05-07T00:44:03.478Z,88.65
2023-05-07T00:46:33.938Z,88.60
2023-05-07T00:49:02.400Z,88.45
2023-05-07T00:51:32.012Z,88.29
2023-05-07T00:54:00.988Z,88.29
2023-05-07T00:56:28.630Z,88.35
2023-05-07T00:58:56.793Z,88.26
2023-05-07T01:01:24.137Z,88.83
2023-05-07T01:03:51.779Z,88.60
2023-05-07T01:06:22.363Z,88.44
2023-05-07T01:08:52.062Z,88.39
2023-05-07T01:11:21.495Z,88.40
2023-05-07T01:13:51.274Z,87.98
2023-05-07T01:16:18.763Z,88.03
2023-05-07T01:18:49.198Z,87.84
2023-05-07T01:21:19.192Z,88.13
2023-05-07T01:23:48.377Z,87.76
2023-05-07T01:26:15.785Z,87.67
2023-05-07T01:28:43.346Z,87.91
2023-05-07T01:31:11.416Z,87.78
2023-05-07T01:33:42.320Z,88.01
2023-05-07T01:36:12.024Z,87.75
2023-05-07T01:38:42.519Z,87.66
2023-05-07T01:41:09.801Z,87.70
2023-05-07T01:43:37.717Z,87.21
2023-05-07T01:46:06.174Z,87.20
2023-05-07T01:48:35.644Z,87.26
2023-05-07T01:51:04.251Z,86.92
2023-05-07T01:53:41.862Z,86.98
2023-05-07T01:56:09.192Z,86.90
2023-05-07T01:58:37.056Z,86.70
2023-05-07T02:01:04.353Z,86.72
2023-05-07T02:03:32.020Z,86.83
2023-05-07T02:05:59.358Z,86.53
2023-05-07T02:08:26.897Z,86.35
2023-05-07T02:10:54.981Z,86.36
2023-05-07T02:13:23.880Z,86.19
2023-05-07T02:15:51.738Z,85.99
2023-05-07T02:18:19.297Z,85.94
2023-05-07T02:20:46.505Z,85.70
2023-05-07T02:23:14.025Z,85.64
2023-05-07T02:25:41.377Z,85.63
2023-05-07T02:28:08.982Z,85.42
2023-05-07T02:30:37.907Z,85.09
2023-05-07T02:33:05.711Z,85.10
2023-05-07T02:35:33.042Z,85.20
2023-05-07T02:38:00.584Z,85.00
2023-05-07T02:40:27.811Z,84.77
2023-05-07T02:42:55.426Z,84.94
2023-05-07T02:45:22.706Z,84.71
2023-05-07T02:47:50.284Z,84.76
2023-05-07T02:50:17.734Z,84.45
2023-05-07T02:52:45.188Z,84.06
2023-05-07T02:55:12.540Z,84.13
2023-05-07T02:57:40.008Z,84.02
2023-05-07T03:00:21.027Z,84.90
2023-05-07T03:02:48.523Z,85.78
2023-05-07T03:05:15.855Z,86.31
2023-05-07T03:07:46.395Z,86.69
2023-05-07T03:10:14.837Z,86.38
2023-05-07T03:12:42.410Z,86.62
2023-05-07T03:15:11.541Z,87.08
2023-05-07T03:17:39.491Z,86.99
2023-05-07T03:20:08.260Z,86.46
2023-05-07T03:22:36.080Z,86.92
2023-05-07T03:25:03.576Z,87.93
2023-05-07T03:27:31.353Z,86.85
2023-05-07T03:29:58.627Z,86.65
2023-05-07T03:32:26.369Z,86.49
2023-05-07T03:34:53.658Z,86.71
2023-05-07T03:37:22.755Z,86.92
2023-05-07T03:39:49.956Z,87.23
2023-05-07T03:42:17.624Z,87.14
2023-05-07T03:44:44.858Z,86.85
2023-05-07T03:47:12.444Z,86.60
2023-05-07T03:49:39.882Z,86.37
2023-05-07T03:52:07.871Z,86.20
2023-05-07T03:54:35.096Z,85.92
2023-05-07T03:57:02.842Z,85.68
2023-05-07T03:59:30.075Z,85.23
2023-05-07T04:01:57.667Z,85.07
2023-05-07T04:04:25.240Z,85.07
2023-05-07T04:06:53.096Z,85.54
2023-05-07T04:09:20.281Z,86.15
2023-05-07T04:11:47.859Z,86.49
2023-05-07T04:14:15.161Z,86.38
2023-05-07T04:16:42.683Z,87.62
2023-05-07T04:19:09.914Z,88.99
2023-05-07T04:21:37.448Z,88.03
2023-05-07T04:24:05.277Z,87.53
2023-05-07T04:26:32.776Z,86.94
2023-05-07T04:29:00.837Z,86.14
2023-05-07T04:31:28.487Z,86.52
2023-05-07T04:33:55.761Z,85.96
2023-05-07T04:36:23.300Z,85.98
2023-05-07T04:38:50.665Z,85.00
2023-05-07T04:41:18.662Z,85.83
2023-05-07T04:43:46.713Z,86.23
2023-05-07T04:46:14.558Z,86.37
2023-05-07T04:48:41.815Z,86.18
2023-05-07T04:51:09.332Z,86.02
2023-05-07T04:53:36.689Z,85.61
2023-05-07T04:56:04.528Z,84.95
2023-05-07T04:58:32.983Z,85.17
2023-05-07T05:01:01.635Z,85.69
2023-05-07T05:03:29.109Z,85.36
2023-05-07T05:05:56.686Z,85.62
2023-05-07T05:08:24.056Z,85.15
2023-05-07T05:10:51.890Z,84.79
2023-05-07T05:13:19.236Z,82.95
2023-05-07T05:15:47.040Z,83.28
2023-05-07T05:18:14.361Z,82.97
2023-05-07T05:20:41.929Z,83.16
2023-05-07T05:23:09.515Z,83.19
2023-05-07T05:25:37.062Z,83.20
2023-05-07T05:28:04.618Z,83.95
2023-05-07T05:30:32.160Z,83.75
2023-05-07T05:32:59.429Z,83.99
2023-05-07T05:35:26.984Z,83.83
2023-05-07T05:37:54.466Z,84.23
2023-05-07T05:40:21.981Z,84.21
2023-05-07T05:42:49.283Z,84.23
2023-05-07T05:45:17.000Z,84.24
2023-05-07T05:47:44.291Z,84.05
2023-05-07T05:50:12.254Z,83.63
2023-05-07T05:52:39.700Z,83.31
2023-05-07T05:55:08.038Z,83.07
2023-05-07T05:57:35.472Z,82.94
2023-05-07T06:00:04.152Z,83.57
2023-05-07T06:02:31.488Z,83.31
2023-05-07T06:04:59.137Z,83.28
2023-05-07T06:07:26.675Z,83.96
2023-05-07T06:09:54.166Z,84.12
2023-05-07T06:12:22.555Z,84.50
2023-05-07T06:14:50.093Z,84.29
2023-05-07T06:17:19.414Z,83.58
2023-05-07T06:19:48.559Z,83.45
2023-05-07T06:22:16.125Z,83.18
2023-05-07T06:24:44.128Z,84.55
2023-05-07T06:27:11.560Z,84.04
2023-05-07T06:29:39.094Z,84.18
2023-05-07T06:32:14.736Z,84.58
2023-05-07T06:34:42.405Z,85.30
2023-05-07T06:37:09.776Z,85.27
2023-05-07T06:39:37.314Z,84.21
2023-05-07T06:42:05.724Z,84.22
2023-05-07T06:44:33.417Z,83.36
2023-05-07T06:47:00.902Z,83.23
2023-05-07T06:49:28.569Z,83.08
2023-05-07T06:51:56.561Z,82.41
2023-05-07T06:54:24.600Z,83.04
2023-05-07T06:56:51.957Z,82.82
2023-05-07T06:59:20.500Z,83.39
2023-05-07T07:01:48.020Z,82.85
2023-05-07T07:04:15.862Z,83.32
2023-05-07T07:06:43.105Z,82.15
2023-05-07T07:09:10.690Z,81.88
2023-05-07T07:11:37.928Z,81.09
2023-05-07T07:14:06.485Z,81.11
2023-05-07T07:16:33.846Z,79.45
2023-05-07T07:19:01.447Z,79.27
2023-05-07T07:21:28.757Z,79.52
2023-05-07T07:23:56.425Z,79.27
2023-05-07T07:26:23.754Z,79.72
2023-05-07T07:28:51.274Z,79.27
2023-05-07T07:31:18.584Z,79.99
2023-05-07T07:33:46.507Z,78.25
2023-05-07T07:36:13.780Z,78.11
2023-05-07T07:38:41.387Z,77.11
2023-05-07T07:41:11.644Z,77.01
2023-05-07T07:43:39.178Z,76.20
2023-05-07T07:46:06.488Z,76.02
2023-05-07T07:48:34.739Z,76.25
2023-05-07T07:51:02.017Z,76.78
2023-05-07T07:53:29.775Z,77.29
2023-05-07T07:55:59.385Z,76.10
2023-05-07T07:58:27.350Z,74.17
2023-05-07T08:00:57.001Z,72.81
2023-05-07T08:03:24.978Z,73.09
2023-05-07T08:05:52.329Z,73.05
2023-05-07T08:08:19.892Z,74.01
2023-05-07T08:10:47.316Z,73.89
2023-05-07T08:13:14.975Z,73.58
2023-05-07T08:15:42.294Z,73.75
2023-05-07T08:18:10.587Z,74.09
2023-05-07T08:20:40.583Z,74.85
2023-05-07T08:23:08.735Z,74.48
2023-05-07T08:25:38.564Z,73.82
2023-05-07T08:28:08.355Z,73.87
2023-05-07T08:30:37.012Z,71.73
2023-05-07T08:33:05.207Z,71.37
2023-05-07T08:35:32.608Z,70.31
2023-05-07T08:38:00.178Z,69.12
2023-05-07T08:40:28.728Z,68.80
2023-05-07T08:42:59.054Z,69.46
2023-05-07T08:45:30.677Z,69.91
2023-05-07T08:48:03.501Z,69.69
2023-05-07T08:50:31.283Z,69.20
2023-05-07T08:52:59.117Z,68.32
2023-05-07T08:55:26.576Z,69.22
2023-05-07T08:57:54.166Z,69.96
2023-05-07T09:00:21.488Z,69.88
2023-05-07T09:02:49.513Z,67.95
2023-05-07T09:05:16.998Z,66.51
2023-05-07T09:07:44.675Z,67.73
2023-05-07T09:10:12.643Z,67.93
2023-05-07T09:12:41.539Z,65.25
2023-05-07T09:15:09.888Z,64.83
2023-05-07T09:17:38.237Z,66.74
2023-05-07T09:20:09.289Z,67.63
2023-05-07T09:22:39.673Z,68.88
2023-05-07T09:25:10.746Z,69.51
2023-05-07T09:27:38.899Z,69.61
2023-05-07T09:30:09.773Z,69.87
2023-05-07T09:32:41.497Z,69.64
2023-05-07T09:35:22.633Z,70.39
2023-05-07T09:37:51.048Z,70.86
2023-05-07T09:40:24.133Z,69.47
2023-05-07T09:42:52.202Z,68.68
2023-05-07T09:45:30.061Z,69.80
2023-05-07T09:47:59.826Z,70.44
2023-05-07T09:50:37.151Z,70.38
2023-05-07T09:53:06.758Z,70.02
2023-05-07T09:55:34.496Z,68.74
2023-05-07T09:58:05.819Z,67.48
2023-05-07T10:00:34.060Z,67.82
2023-05-07T10:03:04.795Z,68.61
2023-05-07T10:05:33.690Z,68.40
2023-05-07T10:08:04.514Z,68.34
2023-05-07T10:10:35.443Z,68.22
2023-05-07T10:13:07.191Z,69.52
2023-05-07T10:15:36.148Z,69.22
2023-05-07T10:18:07.336Z,69.41
2023-05-07T10:20:37.622Z,69.11
2023-05-07T10:23:07.084Z,67.91
2023-05-07T10:25:34.596Z,68.05
2023-05-07T10:28:09.733Z,66.99
2023-05-07T10:31:12.481Z,68.13
2023-05-07T10:33:42.070Z,69.02
2023-05-07T10:36:09.627Z,68.47
2023-05-07T10:38:37.809Z,68.35
2023-05-07T10:41:06.742Z,69.00
2023-05-07T10:43:46.125Z,69.69
2023-05-07T10:46:18.652Z,68.72
2023-05-07T10:49:05.458Z,68.83
2023-05-07T10:51:36.757Z,69.68
2023-05-07T10:54:13.832Z,70.72
2023-05-07T10:56:45.619Z,69.97
2023-05-07T10:59:43.337Z,70.46
2023-05-07T11:02:12.497Z,72.54
2023-05-07T11:04:41.355Z,73.22
2023-05-07T11:07:12.389Z,72.18
2023-05-07T11:10:02.158Z,71.01
2023-05-07T11:12:39.157Z,71.05
2023-05-07T11:15:16.831Z,71.46
2023-05-07T11:17:59.596Z,71.90
2023-05-07T11:20:53.145Z,73.19
2023-05-07T11:23:35.989Z,72.51
2023-05-07T11:26:15.448Z,73.01
2023-05-07T11:28:44.719Z,73.92
2023-05-07T11:31:13.042Z,73.43
2023-05-07T11:33:41.046Z,73.71
2023-05-07T11:36:10.071Z,74.11
2023-05-07T11:38:38.729Z,72.81
2023-05-07T11:41:06.810Z,71.67
2023-05-07T11:43:36.649Z,71.49
2023-05-07T11:46:13.461Z,71.06
2023-05-07T11:48:42.651Z,71.21
2023-05-07T11:51:12.333Z,71.00
2023-05-07T11:53:42.930Z,71.26
2023-05-07T11:56:13.279Z,71.43
2023-05-07T11:58:42.917Z,71.82
2023-05-07T12:01:13.082Z,70.09
2023-05-07T12:03:47.138Z,69.34
2023-05-07T12:06:17.749Z,69.21
2023-05-07T12:08:48.162Z,70.26
2023-05-07T12:11:25.092Z,70.86
2023-05-07T12:13:52.747Z,71.33
2023-05-07T12:16:21.575Z,71.24
2023-05-07T12:18:49.769Z,72.54
2023-05-07T12:21:18.413Z,71.92
2023-05-07T12:23:46.403Z,72.17
2023-05-07T12:26:14.079Z,72.77
2023-05-07T12:28:41.523Z,73.76
2023-05-07T12:31:09.600Z,73.51
2023-05-07T12:33:37.832Z,71.52
2023-05-07T12:36:10.911Z,71.45
2023-05-07T12:38:44.392Z,71.78
2023-05-07T12:41:13.585Z,72.24
2023-05-07T12:43:40.955Z,73.19
2023-05-07T12:46:09.659Z,72.07
2023-05-07T12:48:46.812Z,73.33
2023-05-07T12:51:16.252Z,72.70
2023-05-07T12:53:44.487Z,72.98
2023-05-07T12:56:12.222Z,70.61
2023-05-07T12:58:39.514Z,69.20
2023-05-07T13:01:10.843Z,69.09
2023-05-07T13:03:39.974Z,68.58
2023-05-07T13:06:11.154Z,68.62
2023-05-07T13:08:44.286Z,68.61
2023-05-07T13:11:13.506Z,69.24
2023-05-07T13:13:42.610Z,70.17
2023-05-07T13:16:12.880Z,70.69
2023-05-07T13:18:42.148Z,70.70
2023-05-07T13:21:11.312Z,70.79
2023-05-07T13:23:39.825Z,70.64
2023-05-07T13:26:24.684Z,70.58
2023-05-07T13:28:55.579Z,70.88
2023-05-07T13:31:23.542Z,71.27
2023-05-07T13:33:51.187Z,71.49
2023-05-07T13:36:18.811Z,71.73
2023-05-07T13:38:46.099Z,71.39
2023-05-07T13:41:14.252Z,70.83
2023-05-07T13:43:41.500Z,70.25
2023-05-07T13:46:09.189Z,70.08
2023-05-07T13:48:37.016Z,69.66
2023-05-07T13:51:04.613Z,68.63
2023-05-07T13:53:31.884Z,68.22
2023-05-07T13:55:59.508Z,68.56
2023-05-07T13:58:26.873Z,69.56
2023-05-07T14:00:54.474Z,70.70
2023-05-07T14:03:21.807Z,70.78
2023-05-07T14:05:50.570Z,71.19
2023-05-07T14:08:20.911Z,71.21
2023-05-07T14:10:48.532Z,70.86
2023-05-07T14:13:15.878Z,70.82
2023-05-07T14:15:47.394Z,70.97
2023-05-07T14:18:14.682Z,72.01
2023-05-07T14:20:44.324Z,72.45
2023-05-07T14:23:11.546Z,73.55
2023-05-07T14:25:39.352Z,74.98
2023-05-07T14:28:08.681Z,75.30
2023-05-07T14:30:36.690Z,75.69
2023-05-07T14:33:04.028Z,75.97
2023-05-07T14:35:31.623Z,75.97
2023-05-07T14:37:59.362Z,75.74
2023-05-07T14:40:27.037Z,74.79
2023-05-07T14:42:54.355Z,74.56
2023-05-07T14:45:22.699Z,74.22
2023-05-07T14:47:50.209Z,74.48
2023-05-07T14:50:17.910Z,74.48
2023-05-07T14:52:45.186Z,73.79
2023-05-07T14:55:14.103Z,73.06
2023-05-07T14:57:41.930Z,72.28
2023-05-07T15:00:10.807Z,72.10
2023-05-07T15:02:38.387Z,70.68
2023-05-07T15:05:07.218Z,70.36
2023-05-07T15:07:35.509Z,70.42
2023-05-07T15:10:03.219Z,70.21
2023-05-07T15:12:30.494Z,70.78
2023-05-07T15:14:58.130Z,71.01
2023-05-07T15:17:25.594Z,70.64
2023-05-07T15:19:54.433Z,71.14
2023-05-07T15:22:22.805Z,72.57
2023-05-07T15:24:50.440Z,73.03
2023-05-07T15:27:18.286Z,73.79
2023-05-07T15:29:45.900Z,73.94
2023-05-07T15:32:13.393Z,74.53
2023-05-07T15:34:41.049Z,75.00
2023-05-07T15:37:08.391Z,75.36
2023-05-07T15:39:36.183Z,75.63
2023-05-07T15:42:03.795Z,75.43
2023-05-07T15:44:35.477Z,75.72
2023-05-07T15:47:03.199Z,75.98
2023-05-07T15:49:31.183Z,76.56
2023-05-07T15:51:58.499Z,76.89
2023-05-07T15:54:26.279Z,77.43
2023-05-07T15:56:53.618Z,77.58
2023-05-07T15:59:21.857Z,77.75
2023-05-07T16:01:49.993Z,78.52
2023-05-07T16:04:17.779Z,78.92
2023-05-07T16:06:47.521Z,78.38
2023-05-07T16:09:16.844Z,78.00
2023-05-07T16:11:44.258Z,77.62
2023-05-07T16:14:11.961Z,77.14
2023-05-07T16:16:41.022Z,77.13
2023-05-07T16:19:08.864Z,77.71
2023-05-07T16:21:36.461Z,77.89
2023-05-07T16:24:04.806Z,77.96
2023-05-07T16:26:32.113Z,77.89
2023-05-07T16:29:01.921Z,77.65
2023-05-07T16:31:29.277Z,77.54
2023-05-07T16:33:56.982Z,77.69
2023-05-07T16:36:27.791Z,78.19
2023-05-07T16:38:56.016Z,78.19
2023-05-07T16:41:23.503Z,77.66
2023-05-07T16:43:51.515Z,77.56
2023-05-07T16:46:18.761Z,77.52
2023-05-07T16:48:46.370Z,77.49
2023-05-07T16:51:13.913Z,78.06
2023-05-07T16:53:41.603Z,77.85
2023-05-07T16:56:09.165Z,78.24
2023-05-07T16:58:36.691Z,77.69
2023-05-07T17:01:04.158Z,77.44
2023-05-07T17:03:32.380Z,77.56
2023-05-07T17:06:00.143Z,77.90
2023-05-07T17:08:27.949Z,78.12
2023-05-07T17:10:55.384Z,78.08
2023-05-07T17:13:23.096Z,78.44
2023-05-07T17:15:50.575Z,78.07
2023-05-07T17:18:18.235Z,77.88
2023-05-07T17:20:45.724Z,77.55
2023-05-07T17:23:13.820Z,77.59
2023-05-07T17:25:45.645Z,77.78
2023-05-07T17:28:13.537Z,78.11
2023-05-07T17:30:41.563Z,77.83
2023-05-07T17:33:20.047Z,77.48
2023-05-07T17:35:48.738Z,78.19
2023-05-07T17:38:16.432Z,77.27
2023-05-07T17:40:43.933Z,77.40
2023-05-07T17:43:11.762Z,77.07
2023-05-07T17:45:39.211Z,77.83
2023-05-07T17:48:07.313Z,77.97
2023-05-07T17:50:34.753Z,77.97
2023-05-07T17:53:02.528Z,77.92
2023-05-07T17:55:33.103Z,78.14
2023-05-07T17:58:03.357Z,78.29
2023-05-07T18:00:30.801Z,78.07
2023-05-07T18:03:00.218Z,78.19
2023-05-07T18:05:27.979Z,77.96
2023-05-07T18:07:56.324Z,78.10
2023-05-07T18:10:24.222Z,78.26
2023-05-07T18:12:51.956Z,78.07
2023-05-07T18:15:19.615Z,78.42
2023-05-07T18:17:47.301Z,78.43
2023-05-07T18:20:15.075Z,78.50
2023-05-07T18:22:42.741Z,78.50
2023-05-07T18:25:10.478Z,78.50
2023-05-07T18:27:38.165Z,78.50
2023-05-07T18:30:06.516Z,79.07
2023-05-07T18:32:34.211Z,78.42
2023-05-07T18:35:01.569Z,78.48
2023-05-07T18:37:29.948Z,78.46
2023-05-07T18:39:57.845Z,78.01
2023-05-07T18:42:25.554Z,77.83
2023-05-07T18:44:52.867Z,77.66
2023-05-07T18:47:20.512Z,77.95
2023-05-07T18:49:47.819Z,78.06
2023-05-07T18:52:17.346Z,77.70
2023-05-07T18:54:45.824Z,77.64
2023-05-07T18:57:13.473Z,78.04
2023-05-07T18:59:40.772Z,78.44
2023-05-07T19:02:08.343Z,78.73
2023-05-07T19:04:36.456Z,78.60
2023-05-07T19:07:04.101Z,78.64
2023-05-07T19:09:31.444Z,78.50
2023-05-07T19:11:59.489Z,78.51
2023-05-07T19:14:27.108Z,78.76
2023-05-07T19:16:54.782Z,78.68
2023-05-07T19:19:22.436Z,79.32
2023-05-07T19:21:50.907Z,78.64
2023-05-07T19:24:18.234Z,78.86
2023-05-07T19:26:45.918Z,78.54
2023-05-07T19:29:17.988Z,78.61
2023-05-07T19:31:46.370Z,78.69
2023-05-07T19:34:14.419Z,78.83
2023-05-07T19:36:42.328Z,79.29
2023-05-07T19:39:10.153Z,79.39
2023-05-07T19:41:38.195Z,79.68
2023-05-07T19:44:05.570Z,80.00
2023-05-07T19:46:33.624Z,79.96
2023-05-07T19:49:01.701Z,80.29
2023-05-07T19:51:32.540Z,80.13
2023-05-07T19:54:00.416Z,80.19
2023-05-07T19:56:28.177Z,79.89
2023-05-07T19:58:55.602Z,80.10
2023-05-07T20:01:23.435Z,80.06
2023-05-07T20:03:50.917Z,79.94
2023-05-07T20:06:18.746Z,80.12
2023-05-07T20:08:46.169Z,80.03
2023-05-07T20:11:14.358Z,79.63
2023-05-07T20:13:41.812Z,79.51
2023-05-07T20:16:09.602Z,79.78
2023-05-07T20:18:36.986Z,79.66
2023-05-07T20:21:05.374Z,79.68
2023-05-07T20:23:33.258Z,79.87
2023-05-07T20:26:01.616Z,80.01
2023-05-07T20:28:29.281Z,79.59
2023-05-07T20:30:57.002Z,79.62
2023-05-07T20:33:24.585Z,79.50
2023-05-07T20:35:52.203Z,79.30
2023-05-07T20:38:19.590Z,79.45
2023-05-07T20:40:47.388Z,79.43
2023-05-07T20:43:14.957Z,79.60
2023-05-07T20:45:42.680Z,79.52
2023-05-07T20:48:10.098Z,79.62
2023-05-07T20:50:37.809Z,79.66
2023-05-07T20:53:05.384Z,79.57
2023-05-07T20:55:33.089Z,79.75
2023-05-07T20:58:00.535Z,79.91
2023-05-07T21:00:28.240Z,80.62
2023-05-07T21:02:55.725Z,80.04
2023-05-07T21:05:23.548Z,79.94
2023-05-07T21:07:50.841Z,79.76
2023-05-07T21:10:18.515Z,80.15
2023-05-07T21:12:45.995Z,80.16
2023-05-07T21:15:13.692Z,79.57
2023-05-07T21:17:41.132Z,79.95
2023-05-07T21:20:09.555Z,80.02
2023-05-07T21:22:36.939Z,80.31
2023-05-07T21:25:05.332Z,80.08
2023-05-07T21:27:32.615Z,79.71
2023-05-07T21:30:04.901Z,80.13
2023-05-07T21:32:32.396Z,79.78
2023-05-07T21:35:03.078Z,79.86
2023-05-07T21:37:30.440Z,79.90
2023-05-07T21:39:58.023Z,79.44
2023-05-07T21:42:25.855Z,79.62
2023-05-07T21:44:53.533Z,79.71
2023-05-07T21:47:21.346Z,79.82
2023-05-07T21:49:49.011Z,79.98
2023-05-07T21:52:17.585Z,79.70
2023-05-07T21:54:45.267Z,79.99
2023-05-07T21:57:12.605Z,80.10
2023-05-07T21:59:40.323Z,80.10
2023-05-07T22:02:07.611Z,80.29
2023-05-07T22:04:35.578Z,79.55
2023-05-07T22:07:02.908Z,79.38
2023-05-07T22:09:30.562Z,79.48
2023-05-07T22:11:57.826Z,80.00
2023-05-07T22:14:25.532Z,80.10
2023-05-07T22:16:53.119Z,80.37
2023-05-07T22:19:21.360Z,80.18
2023-05-07T22:21:48.684Z,80.44
2023-05-07T22:24:16.424Z,79.97
2023-05-07T22:26:45.172Z,80.04
2023-05-07T22:29:12.818Z,80.25
2023-05-07T22:31:40.139Z,80.14
2023-05-07T22:34:07.955Z,80.27
2023-05-07T22:36:35.552Z,80.78
2023-05-07T22:39:07.149Z,80.86
2023-05-07T22:41:34.724Z,80.19
2023-05-07T22:44:03.159Z,79.60
2023-05-07T22:46:31.315Z,79.95
2023-05-07T22:48:58.973Z,80.09
2023-05-07T22:51:26.383Z,80.32
2023-05-07T22:53:54.161Z,80.43
2023-05-07T22:56:21.566Z,80.05
2023-05-07T22:58:49.690Z,80.27
2023-05-07T23:01:18.961Z,80.16
2023-05-07T23:03:46.799Z,80.03
2023-05-07T23:06:14.404Z,80.07
2023-05-07T23:08:42.050Z,80.18
2023-05-07T23:11:09.391Z,80.26
2023-05-07T23:13:37.045Z,80.71
2023-05-07T23:16:04.608Z,80.74
2023-05-07T23:18:32.724Z,81.16
2023-05-07T23:21:00.013Z,80.96
2023-05-07T23:23:33.639Z,81.20
2023-05-07T23:26:01.154Z,81.34
2023-05-07T23:28:28.946Z,81.89
2023-05-07T23:30:56.803Z,82.01
2023-05-07T23:33:24.505Z,82.17
2023-05-07T23:36:00.471Z,82.32
2023-05-07T23:38:28.177Z,82.54
2023-05-07T23:40:55.886Z,82.37
2023-05-07T23:43:23.797Z,82.25
2023-05-07T23:45:51.749Z,82.60
2023-05-07T23:48:19.696Z,82.63
2023-05-07T23:50:47.146Z,83.00
2023-05-07T23:53:14.760Z,82.79
2023-05-07T23:55:42.526Z,83.61
2023-05-07T23:58:10.582Z,83.99
